createdAt,value
2022-08-16T00:02:03.525Z,98.34
2022-08-16T00:04:45.181Z,97.20
2022-08-16T00:07:23.424Z,98.84
2022-08-16T00:09:55.313Z,98.96
2022-08-16T00:12:27.935Z,98.81
2022-08-16T00:15:01.262Z,98.42
2022-08-16T00:17:56.161Z,98.74
2022-08-16T00:20:28.803Z,97.88
2022-08-16T00:26:36.100Z,99.03
2022-08-16T00:28:54.796Z,98.30
2022-08-16T00:31:27.413Z,99.51
2022-08-16T00:34:44.193Z,99.38
2022-08-16T00:37:20.956Z,98.60
2022-08-16T00:39:58.517Z,97.76
2022-08-16T00:42:34.560Z,98.71
2022-08-16T00:45:12.513Z,98.74
2022-08-16T00:47:49.883Z,99.09
2022-08-16T00:50:35.980Z,98.35
2022-08-16T00:53:10.171Z,97.74
2022-08-16T00:55:47.959Z,98.16
2022-08-16T00:58:34.807Z,97.88
2022-08-16T01:01:08.780Z,98.08
2022-08-16T01:03:44.958Z,98.08
2022-08-16T01:06:40.867Z,98.88
2022-08-16T01:09:18.357Z,99.83
2022-08-16T01:11:53.784Z,98.66
2022-08-16T01:14:32.331Z,98.68
2022-08-16T01:17:08.527Z,98.41
2022-08-16T01:19:46.408Z,97.89
2022-08-16T01:22:49.850Z,98.58
2022-08-16T01:25:33.677Z,98.71
2022-08-16T01:28:10.245Z,98.38
2022-08-16T01:30:57.534Z,97.99
2022-08-16T01:33:33.114Z,98.78
2022-08-16T01:36:11.661Z,98.38
2022-08-16T01:38:51.259Z,99.17
2022-08-16T01:41:33.403Z,99.11
2022-08-16T01:44:14.883Z,98.96
2022-08-16T01:46:53.688Z,98.39
2022-08-16T01:49:43.167Z,98.80
2022-08-16T01:52:28.294Z,98.38
2022-08-16T01:55:02.778Z,99.34
2022-08-16T01:57:37.863Z,99.68
2022-08-16T02:00:19.330Z,100.00
2022-08-16T02:02:52.494Z,99.74
2022-08-16T02:05:30.821Z,99.37
2022-08-16T02:08:03.613Z,99.43
2022-08-16T02:10:37.539Z,99.89
2022-08-16T02:13:15.714Z,100.00
2022-08-16T02:15:48.063Z,99.90
2022-08-16T02:18:22.844Z,100.00
2022-08-16T02:20:57.194Z,100.00
2022-08-16T02:23:31.813Z,100.00
2022-08-16T02:26:04.225Z,99.27
2022-08-16T02:28:39.566Z,99.77
2022-08-16T02:31:19.553Z,99.61
2022-08-16T02:33:52.157Z,99.38
2022-08-16T02:36:47.815Z,99.70
2022-08-16T02:39:19.655Z,99.86
2022-08-16T02:41:56.593Z,99.86
2022-08-16T02:44:31.743Z,100.00
2022-08-16T02:47:04.604Z,99.87
2022-08-16T02:50:01.433Z,100.00
2022-08-16T02:52:29.615Z,100.00
2022-08-16T02:55:04.814Z,100.00
2022-08-16T02:57:37.974Z,100.00
2022-08-16T03:00:33.572Z,100.00
2022-08-16T03:03:10.559Z,100.00
2022-08-16T03:05:42.866Z,100.00
2022-08-16T03:08:50.556Z,100.00
2022-08-16T03:11:16.715Z,100.00
2022-08-16T03:13:57.296Z,100.00
2022-08-16T03:19:59.667Z,99.96
2022-08-16T03:22:45.553Z,100.00
2022-08-16T03:25:19.327Z,100.00
2022-08-16T03:27:51.403Z,100.00
2022-08-16T03:30:26.254Z,100.00
2022-08-16T03:33:01.434Z,100.00
2022-08-16T03:35:36.633Z,100.00
2022-08-16T03:38:34.627Z,100.00
2022-08-16T03:41:24.357Z,100.00
2022-08-16T03:43:57.916Z,100.00
2022-08-16T03:46:45.066Z,100.00
2022-08-16T03:49:24.633Z,100.00
2022-08-16T03:52:10.283Z,100.00
2022-08-16T03:54:45.418Z,100.00
2022-08-16T03:57:32.202Z,100.00
2022-08-16T04:00:20.512Z,100.00
2022-08-16T04:03:10.424Z,100.00
2022-08-16T04:05:48.783Z,100.00
2022-08-16T04:08:23.131Z,100.00
2022-08-16T04:10:58.725Z,100.00
2022-08-16T04:14:00.301Z,100.00
2022-08-16T04:16:27.446Z,100.00
2022-08-16T04:19:22.623Z,100.00
2022-08-16T04:21:58.398Z,100.00
2022-08-16T04:24:33.224Z,100.00
2022-08-16T04:27:09.092Z,100.00
2022-08-16T04:29:44.097Z,100.00
2022-08-16T04:32:19.764Z,100.00
2022-08-16T04:34:56.403Z,100.00
2022-08-16T04:37:31.135Z,100.00
2022-08-16T04:40:21.747Z,100.00
2022-08-16T04:42:57.359Z,100.00
2022-08-16T04:45:36.038Z,100.00
2022-08-16T04:48:10.437Z,100.00
2022-08-16T04:50:43.638Z,100.00
2022-08-16T04:53:19.219Z,100.00
2022-08-16T04:55:53.303Z,100.00
2022-08-16T04:58:45.159Z,99.81
2022-08-16T05:01:18.208Z,99.58
2022-08-16T06:41:39.701Z,69.11
2022-08-16T06:44:35.595Z,66.45
2022-08-16T06:47:09.015Z,65.25
2022-08-16T06:49:41.877Z,61.47
2022-08-16T06:52:57.997Z,64.62
2022-08-16T06:55:20.180Z,64.12
2022-08-16T06:57:56.236Z,66.73
2022-08-16T07:00:29.178Z,57.27
2022-08-16T07:03:01.597Z,59.86
2022-08-16T07:05:54.128Z,62.26
2022-08-16T07:08:27.331Z,54.75
2022-08-16T07:11:02.147Z,56.02
2022-08-16T07:16:30.716Z,55.48
2022-08-16T07:19:03.619Z,49.63
2022-08-16T07:21:46.161Z,53.85
2022-08-16T07:24:31.131Z,50.57
2022-08-16T07:27:08.534Z,54.72
2022-08-16T07:29:47.437Z,50.98
2022-08-16T07:32:29.711Z,53.03
2022-08-16T07:35:04.036Z,48.62
2022-08-16T07:37:36.759Z,44.94
2022-08-16T07:40:13.857Z,50.86
2022-08-16T07:42:46.447Z,51.23
2022-08-16T07:45:21.485Z,47.27
2022-08-16T07:47:53.720Z,47.82
2022-08-16T07:50:55.579Z,46.25
2022-08-16T08:45:49.334Z,44.23
2022-08-16T08:48:34.918Z,40.25
2022-08-16T08:51:11.741Z,42.31
2022-08-16T08:53:43.858Z,43.48
2022-08-16T08:56:23.278Z,43.74
2022-08-16T08:59:00.995Z,45.13
2022-08-16T09:01:43.147Z,43.24
2022-08-16T09:04:29.571Z,40.19
2022-08-16T09:07:01.997Z,37.20
2022-08-16T09:09:37.831Z,38.08
2022-08-16T09:12:35.617Z,41.76
2022-08-16T09:15:11.581Z,43.29
2022-08-16T09:17:52.105Z,39.98
2022-08-16T09:20:29.631Z,45.48
2022-08-16T09:23:03.755Z,39.97
2022-08-16T09:25:35.815Z,41.55
2022-08-16T09:28:10.402Z,37.10
2022-08-16T09:30:43.954Z,40.76
2022-08-16T09:33:22.156Z,38.29
2022-08-16T09:35:54.686Z,40.80
2022-08-16T09:38:36.507Z,39.22
2022-08-16T09:41:14.666Z,39.06
2022-08-16T09:43:59.422Z,39.35
2022-08-16T09:46:48.447Z,40.34
2022-08-16T09:49:37.221Z,40.58
2022-08-16T09:52:10.099Z,40.31
2022-08-16T09:54:44.330Z,39.21
2022-08-16T09:57:17.622Z,38.08
2022-08-16T09:59:55.947Z,36.67
2022-08-16T10:02:28.829Z,37.34
2022-08-16T10:05:03.745Z,35.24
2022-08-16T10:07:44.483Z,35.90
2022-08-16T10:10:18.621Z,38.30
2022-08-16T10:13:12.356Z,37.13
2022-08-16T10:15:55.484Z,38.51
2022-08-16T10:19:00.795Z,36.63
2022-08-16T10:21:25.656Z,37.48
2022-08-16T10:24:01.467Z,37.77
2022-08-16T10:27:17.072Z,37.11
2022-08-16T10:29:26.826Z,38.56
2022-08-16T10:32:20.937Z,40.45
2022-08-16T10:34:53.517Z,37.70
2022-08-16T10:37:28.530Z,36.47
2022-08-16T10:40:28.719Z,35.24
2022-08-16T10:43:03.382Z,36.00
2022-08-16T10:45:40.759Z,36.65
2022-08-16T10:48:27.058Z,38.58
2022-08-16T10:51:01.828Z,36.08
2022-08-16T10:53:40.201Z,34.56
2022-08-16T10:56:52.141Z,36.45
2022-08-16T11:05:08.951Z,38.37
2022-08-16T11:07:43.493Z,36.98
2022-08-16T11:16:26.367Z,35.33
2022-08-16T11:19:05.379Z,33.00
2022-08-16T11:24:44.706Z,36.39
2022-08-16T11:27:23.971Z,34.97
2022-08-16T11:30:04.940Z,33.34
2022-08-16T11:32:41.594Z,30.95
2022-08-16T11:35:18.327Z,35.57
2022-08-16T11:38:47.555Z,33.04
2022-08-16T11:41:07.338Z,34.46
2022-08-16T11:43:44.106Z,36.22
2022-08-16T11:46:44.754Z,34.19
2022-08-16T11:49:13.618Z,36.29
2022-08-16T11:51:47.426Z,35.75
2022-08-16T11:54:22.829Z,38.10
2022-08-16T11:57:08.961Z,38.84
2022-08-16T11:59:58.003Z,37.06
2022-08-16T12:02:32.004Z,39.08
2022-08-16T12:05:04.822Z,39.70
2022-08-16T12:07:37.800Z,39.65
2022-08-16T12:10:15.931Z,38.56
2022-08-16T12:12:49.598Z,36.93
2022-08-16T12:15:27.338Z,36.26
2022-08-16T12:18:03.518Z,34.09
2022-08-16T12:20:38.940Z,38.24
2022-08-16T12:23:12.880Z,38.20
2022-08-16T12:25:45.080Z,34.77
2022-08-16T12:28:37.090Z,35.79
2022-08-16T12:31:13.720Z,36.41
2022-08-16T12:33:45.999Z,33.64
2022-08-16T12:36:18.021Z,34.19
2022-08-16T12:38:53.107Z,34.35
2022-08-16T12:41:25.704Z,36.08
2022-08-16T12:44:01.246Z,36.17
2022-08-16T12:46:37.238Z,38.44
2022-08-16T12:49:08.648Z,39.05
2022-08-16T12:51:58.873Z,39.54
2022-08-16T12:54:33.858Z,39.38
2022-08-16T12:57:05.882Z,38.96
2022-08-16T12:59:46.561Z,36.40
2022-08-16T13:02:33.829Z,37.08
2022-08-16T13:05:11.520Z,36.02
2022-08-16T13:07:51.780Z,32.82
2022-08-16T13:10:37.138Z,35.35
2022-08-16T13:13:10.738Z,33.73
2022-08-16T13:15:55.684Z,33.31
2022-08-16T13:18:36.363Z,33.14
2022-08-16T13:21:10.493Z,32.07
2022-08-16T13:23:43.534Z,33.00
2022-08-16T13:26:17.276Z,33.43
2022-08-16T13:28:49.947Z,36.06
2022-08-16T13:31:23.883Z,33.93
2022-08-16T13:33:59.087Z,35.15
2022-08-16T13:36:48.678Z,33.99
2022-08-16T13:39:21.679Z,33.58
2022-08-16T13:41:56.888Z,35.29
2022-08-16T13:44:46.515Z,33.92
2022-08-16T13:47:21.760Z,34.82
2022-08-16T13:49:57.881Z,35.07
2022-08-16T13:52:34.090Z,34.03
2022-08-16T13:55:15.651Z,35.84
2022-08-16T13:58:34.169Z,35.44
2022-08-16T14:00:42.459Z,32.81
2022-08-16T14:03:15.020Z,31.76
2022-08-16T14:05:53.059Z,32.06
2022-08-16T14:08:27.437Z,36.38
2022-08-16T14:11:00.180Z,35.63
2022-08-16T14:13:32.458Z,35.92
2022-08-16T14:16:12.317Z,35.37
2022-08-16T14:18:45.061Z,33.18
2022-08-16T14:21:21.951Z,34.00
2022-08-16T14:23:55.938Z,35.30
2022-08-16T14:26:29.501Z,35.60
2022-08-16T14:29:03.755Z,34.95
2022-08-16T14:31:39.377Z,33.45
2022-08-16T14:34:12.199Z,35.74
2022-08-16T14:36:46.979Z,33.55
2022-08-16T14:39:25.256Z,35.91
2022-08-16T14:41:57.363Z,36.14
2022-08-16T14:44:29.728Z,35.72
2022-08-16T14:47:02.377Z,35.20
2022-08-16T14:49:37.919Z,33.57
2022-08-16T14:52:27.657Z,34.20
2022-08-16T14:55:12.191Z,34.90
2022-08-16T14:57:45.521Z,35.76
2022-08-16T15:00:18.621Z,34.37
2022-08-16T15:02:56.002Z,34.49
2022-08-16T15:08:36.785Z,33.53
2022-08-16T15:11:10.300Z,32.53
2022-08-16T15:13:42.800Z,31.95
2022-08-16T15:16:15.200Z,32.72
2022-08-16T15:18:49.680Z,31.83
2022-08-16T15:21:22.402Z,32.93
2022-08-16T15:23:57.859Z,33.94
2022-08-16T15:26:42.783Z,32.65
2022-08-16T15:29:17.140Z,32.53
2022-08-16T15:31:49.221Z,34.22
2022-08-16T15:34:33.080Z,33.93
2022-08-16T15:37:05.959Z,33.58
2022-08-16T15:39:40.497Z,33.69
2022-08-16T15:42:27.212Z,33.53
2022-08-16T15:44:59.320Z,33.15
2022-08-16T15:47:33.588Z,32.61
2022-08-16T15:50:06.058Z,33.25
2022-08-16T15:52:40.041Z,33.51
2022-08-16T15:55:29.688Z,37.30
2022-08-16T15:58:34.901Z,34.61
2022-08-16T16:00:59.252Z,33.45
2022-08-16T16:03:34.672Z,33.85
2022-08-16T16:06:07.618Z,34.69
2022-08-16T16:08:41.556Z,34.55
2022-08-16T16:11:17.500Z,35.27
2022-08-16T16:13:51.902Z,34.92
2022-08-16T16:16:24.019Z,34.27
2022-08-16T16:18:57.018Z,33.59
2022-08-16T16:21:28.838Z,34.15
2022-08-16T16:24:21.329Z,33.28
2022-08-16T16:26:57.641Z,33.74
2022-08-16T16:29:29.699Z,34.71
2022-08-16T16:32:10.018Z,34.05
2022-08-16T16:34:43.538Z,33.92
2022-08-16T16:37:16.298Z,33.65
2022-08-16T16:39:48.683Z,33.24
2022-08-16T16:42:29.894Z,34.30
2022-08-16T16:45:03.460Z,33.74
2022-08-16T16:47:48.387Z,34.23
2022-08-16T16:50:22.759Z,34.00
2022-08-16T16:52:57.299Z,33.49
2022-08-16T16:55:30.858Z,34.05
2022-08-16T16:58:18.042Z,33.67
2022-08-16T17:01:07.936Z,34.15
2022-08-16T17:03:39.858Z,34.17
2022-08-16T17:06:12.587Z,34.27
2022-08-16T17:08:47.725Z,34.11
2022-08-16T17:11:25.799Z,33.26
2022-08-16T17:14:04.341Z,33.64
2022-08-16T17:16:38.037Z,33.65
2022-08-16T17:19:16.684Z,33.71
2022-08-16T17:21:54.218Z,33.62
2022-08-16T17:24:33.079Z,34.01
2022-08-16T17:27:18.122Z,34.24
2022-08-16T17:29:54.440Z,34.42
2022-08-16T17:32:33.693Z,34.91
2022-08-16T17:35:34.113Z,34.74
2022-08-16T17:38:11.255Z,35.08
2022-08-16T17:40:55.490Z,35.10
2022-08-16T17:43:36.199Z,35.81
2022-08-16T17:46:41.308Z,35.61
2022-08-16T17:49:04.866Z,36.20
2022-08-16T17:51:37.359Z,36.50
2022-08-16T17:54:11.488Z,37.03
2022-08-16T17:57:02.420Z,37.78
2022-08-16T17:59:40.749Z,37.67
2022-08-16T18:02:43.104Z,38.05
2022-08-16T18:05:13.098Z,38.80
2022-08-16T18:07:46.059Z,39.51
2022-08-16T18:10:33.173Z,39.54
2022-08-16T18:13:08.580Z,40.46
2022-08-16T18:15:43.219Z,41.54
2022-08-16T18:18:20.718Z,41.41
2022-08-16T18:21:06.401Z,41.69
2022-08-16T18:23:40.098Z,42.35
2022-08-16T18:26:13.140Z,42.74
2022-08-16T18:28:45.519Z,43.32
2022-08-16T18:31:18.187Z,44.09
2022-08-16T18:33:55.687Z,45.18
2022-08-16T18:36:29.280Z,46.22
2022-08-16T18:39:02.099Z,46.51
2022-08-16T18:41:37.447Z,46.81
2022-08-16T18:44:25.809Z,47.63
2022-08-16T18:47:00.259Z,48.10
2022-08-16T18:49:35.219Z,48.20
2022-08-16T18:52:08.600Z,49.27
2022-08-16T18:55:01.839Z,49.73
2022-08-16T18:57:34.520Z,50.45
2022-08-16T19:00:11.388Z,50.52
2022-08-16T19:02:58.906Z,50.82
2022-08-16T19:05:37.420Z,51.32
2022-08-16T19:08:12.304Z,51.68
2022-08-16T19:10:46.340Z,51.76
2022-08-16T19:13:22.859Z,52.60
2022-08-16T19:15:57.407Z,52.64
2022-08-16T19:18:36.570Z,52.37
2022-08-16T19:21:14.674Z,53.15
2022-08-16T19:23:48.400Z,53.67
2022-08-16T19:26:25.694Z,53.97
2022-08-16T19:29:03.421Z,54.48
2022-08-16T19:31:40.384Z,55.13
2022-08-16T19:34:16.140Z,55.25
2022-08-16T19:36:51.060Z,55.64
2022-08-16T19:39:23.584Z,55.62
2022-08-16T19:41:55.906Z,56.32
2022-08-16T19:44:29.140Z,56.98
2022-08-16T19:47:02.459Z,57.09
2022-08-16T19:49:37.001Z,56.84
2022-08-16T19:52:21.099Z,57.31
2022-08-16T19:54:56.409Z,57.03
2022-08-16T19:57:29.881Z,57.38
2022-08-16T20:00:02.621Z,57.79
2022-08-16T20:02:51.681Z,57.81
2022-08-16T20:05:28.320Z,57.76
2022-08-16T20:08:06.560Z,58.29
2022-08-16T20:10:39.324Z,58.59
2022-08-16T20:13:15.861Z,58.60
2022-08-16T20:15:49.287Z,58.34
2022-08-16T20:18:25.245Z,58.79
2022-08-16T20:20:58.381Z,58.95
2022-08-16T20:23:33.341Z,59.39
2022-08-16T20:26:05.800Z,59.94
2022-08-16T20:28:52.713Z,60.12
2022-08-16T20:31:28.199Z,60.14
2022-08-16T20:34:00.781Z,60.19
2022-08-16T20:36:33.520Z,60.53
2022-08-16T20:39:08.380Z,60.66
2022-08-16T20:41:40.801Z,61.16
2022-08-16T20:44:13.800Z,61.42
2022-08-16T20:46:46.499Z,61.57
2022-08-16T20:49:18.803Z,61.60
2022-08-16T20:51:54.838Z,61.66
2022-08-16T20:54:34.699Z,61.95
2022-08-16T20:57:08.019Z,62.25
2022-08-16T20:59:40.342Z,62.68
2022-08-16T21:02:15.081Z,62.77
2022-08-16T21:04:47.504Z,63.12
2022-08-16T21:07:21.000Z,63.89
2022-08-16T21:09:56.139Z,63.74
2022-08-16T21:12:29.233Z,64.34
2022-08-16T21:15:09.441Z,63.91
2022-08-16T21:17:42.062Z,64.36
2022-08-16T21:20:15.085Z,65.09
2022-08-16T21:22:56.092Z,64.57
2022-08-16T21:25:32.081Z,65.08
2022-08-16T21:28:38.845Z,65.33
2022-08-16T21:30:57.301Z,65.53
2022-08-16T21:33:29.660Z,64.94
2022-08-16T21:36:01.681Z,64.63
2022-08-16T21:38:33.960Z,65.29
2022-08-16T21:41:13.122Z,65.35
2022-08-16T21:43:45.522Z,65.87
2022-08-16T21:46:17.802Z,65.81
2022-08-16T21:48:50.240Z,65.81
2022-08-16T21:51:22.200Z,66.06
2022-08-16T21:53:54.521Z,66.67
2022-08-16T21:56:29.154Z,66.54
2022-08-16T21:59:01.661Z,66.43
2022-08-16T22:01:34.019Z,66.69
2022-08-16T22:04:36.598Z,66.27
2022-08-16T22:06:59.624Z,66.73
2022-08-16T22:09:32.302Z,66.92
2022-08-16T22:12:07.903Z,66.96
2022-08-16T22:14:40.880Z,67.16
2022-08-16T22:17:13.120Z,67.46
2022-08-16T22:19:47.261Z,67.71
2022-08-16T22:22:19.422Z,68.33
2022-08-16T22:24:51.960Z,68.43
2022-08-16T22:27:26.880Z,68.30
2022-08-16T22:29:59.441Z,68.35
2022-08-16T22:32:31.927Z,68.93
2022-08-16T22:35:12.223Z,69.42
2022-08-16T22:38:50.244Z,69.73
2022-08-16T22:40:39.590Z,69.83
2022-08-16T22:43:15.363Z,69.84
2022-08-16T22:45:48.004Z,69.91
2022-08-16T22:48:22.522Z,69.90
2022-08-16T22:50:55.041Z,70.42
2022-08-16T22:53:27.381Z,70.60
2022-08-16T22:56:01.721Z,69.89
2022-08-16T22:58:37.398Z,70.21
2022-08-16T23:01:11.497Z,70.81
2022-08-16T23:03:54.402Z,71.31
2022-08-16T23:06:27.842Z,71.57
2022-08-16T23:09:00.166Z,71.54
2022-08-16T23:11:33.001Z,72.20
2022-08-16T23:14:07.919Z,72.31
2022-08-16T23:16:40.420Z,72.18
2022-08-16T23:19:15.151Z,72.58
2022-08-16T23:21:50.000Z,72.35
2022-08-16T23:24:24.680Z,72.49
2022-08-16T23:26:57.399Z,72.55
2022-08-16T23:29:32.199Z,73.05
2022-08-16T23:32:15.167Z,72.97
2022-08-16T23:34:47.361Z,73.19
2022-08-16T23:37:23.780Z,73.65
2022-08-16T23:39:56.082Z,73.73
2022-08-16T23:42:52.372Z,73.42
2022-08-16T23:45:24.639Z,73.99
2022-08-16T23:47:58.220Z,73.81
2022-08-16T23:50:32.761Z,74.38
2022-08-16T23:53:07.822Z,73.84
2022-08-16T23:55:42.870Z,74.73
2022-08-16T23:58:19.059Z,74.88
